Time;durP1;ratioP1;P1;durP2;ratioP2;P2;SDS_P1;SDS_P2;PMS_P1;PMS_P2;Temp;Humidity;BMP_temperature;BMP_pressure;BME280_temperature;BME280_humidity;BME280_pressure;Samples;Min_cycle;Max_cycle;Signal;HPM_P1;HPM_P2
2022/09/08 00:01:11;;;;;;;27.08;24.98;;;18.80;83.80;;;;;;5048157;28;20053;-81
2022/09/08 00:03:38;;;;;;;26.98;24.48;;;18.80;84.00;;;;;;5032457;28;20048;-82
2022/09/08 00:06:07;;;;;;;24.95;22.98;;;18.80;84.10;;;;;;5048888;28;20397;-82
2022/09/08 00:08:34;;;;;;;26.17;23.67;;;18.70;84.40;;;;;;5048410;28;20044;-81
2022/09/08 00:11:02;;;;;;;26.60;23.90;;;18.70;84.40;;;;;;5049043;28;20025;-82
2022/09/08 00:13:30;;;;;;;24.05;22.02;;;18.60;84.70;;;;;;5050143;28;20029;-82
2022/09/08 00:15:56;;;;;;;22.58;20.55;;;18.60;84.60;;;;;;5052127;28;20033;-82
2022/09/08 00:18:23;;;;;;;23.08;21.17;;;18.60;84.80;;;;;;5052395;28;20619;-82
2022/09/08 00:20:49;;;;;;;23.50;21.55;;;18.50;85.70;;;;;;5052631;28;20481;-82
2022/09/08 00:23:16;;;;;;;21.88;19.90;;;18.50;84.90;;;;;;5052292;28;20481;-82
2022/09/08 00:25:42;;;;;;;20.73;18.65;;;18.50;84.90;;;;;;5035814;28;20033;-82
2022/09/08 00:28:08;;;;;;;23.27;18.95;;;18.60;84.80;;;;;;5012639;28;20390;-82
2022/09/08 00:30:34;;;;;;;22.10;19.67;;;18.50;84.70;;;;;;5017921;28;20044;-82
2022/09/08 00:33:01;;;;;;;21.55;19.58;;;18.50;84.80;;;;;;5015909;28;20382;-82
2022/09/08 00:35:27;;;;;;;21.58;19.08;;;18.40;85.00;;;;;;5032401;28;20025;-82
2022/09/08 00:37:53;;;;;;;23.05;18.80;;;18.40;85.00;;;;;;5032063;28;20081;-82
2022/09/08 00:40:21;;;;;;;20.90;18.98;;;18.50;85.10;;;;;;5038985;28;20028;-82
2022/09/08 00:42:47;;;;;;;21.95;19.88;;;18.50;85.10;;;;;;5052173;28;20025;-82
2022/09/08 00:45:17;;;;;;;24.27;20.38;;;18.50;84.50;;;;;;5067061;28;20029;-81
2022/09/08 00:47:58;;;;;;;22.58;20.17;;;18.60;84.20;;;;;;5043149;28;20489;-82
2022/09/08 00:50:25;;;;;;;24.58;20.38;;;18.60;84.10;;;;;;5052176;28;20044;-82
2022/09/08 00:52:59;;;;;;;22.02;20.05;;;18.60;83.90;;;;;;5018346;28;20037;-82
2022/09/08 00:55:25;;;;;;;21.27;19.48;;;18.60;84.10;;;;;;5020249;28;20405;-82
2022/09/08 00:57:51;;;;;;;21.77;19.75;;;18.50;83.70;;;;;;5018661;28;20037;-81
2022/09/08 01:00:18;;;;;;;23.02;20.85;;;18.50;83.70;;;;;;5051069;28;20041;-82
2022/09/08 01:02:45;;;;;;;22.65;20.35;;;18.50;83.90;;;;;;5051794;28;20033;-82
2022/09/08 01:05:13;;;;;;;22.80;20.63;;;18.50;83.80;;;;;;5051750;28;20386;-82
2022/09/08 01:13:41;;;;;;;21.38;19.23;;;18.50;83.90;;;;;;5058550;28;20036;-82
2022/09/08 01:16:07;;;;;;;25.98;20.40;;;18.50;83.80;;;;;;5051000;28;20044;-82
2022/09/08 01:18:34;;;;;;;23.80;21.33;;;18.50;83.70;;;;;;5034595;28;20040;-82
2022/09/08 01:21:09;;;;;;;22.90;20.10;;;18.50;83.70;;;;;;5051118;28;20040;-82
2022/09/08 01:24:09;;;;;;;24.35;22.20;;;18.50;83.40;;;;;;5052700;28;20474;-82
2022/09/08 01:27:00;;;;;;;24.67;22.55;;;18.50;83.40;;;;;;5051768;28;20025;-81
2022/09/08 01:29:26;;;;;;;25.23;22.83;;;18.50;83.30;;;;;;5036581;28;20053;-82
2022/09/08 01:31:52;;;;;;;24.25;22.23;;;18.40;83.20;;;;;;4997872;28;20406;-81
2022/09/08 01:34:18;;;;;;;24.92;22.13;;;18.50;83.20;;;;;;5014680;28;20033;-82
2022/09/08 01:36:44;;;;;;;24.73;22.02;;;18.40;83.70;;;;;;5030909;28;20026;-82
2022/09/08 01:39:10;;;;;;;25.38;22.95;;;18.40;83.60;;;;;;5031110;28;20481;-82
2022/09/08 01:41:36;;;;;;;23.58;21.63;;;18.40;83.40;;;;;;5049603;28;20033;-82
2022/09/08 01:44:03;;;;;;;24.77;22.63;;;18.40;83.30;;;;;;5048599;28;20025;-82
2022/09/08 01:46:30;;;;;;;27.00;23.50;;;18.30;83.50;;;;;;5059594;28;20028;-82
2022/09/08 01:48:57;;;;;;;26.13;22.80;;;18.40;83.50;;;;;;5050600;28;20095;-82
2022/09/08 01:51:23;;;;;;;24.05;22.00;;;18.30;83.30;;;;;;5033891;28;20028;-82
2022/09/08 01:53:49;;;;;;;27.42;24.52;;;18.30;83.30;;;;;;5050700;28;20402;-81
2022/09/08 01:56:15;;;;;;;27.63;24.65;;;18.30;83.20;;;;;;5050802;28;20044;-82
2022/09/08 01:58:41;;;;;;;27.25;24.85;;;18.40;83.20;;;;;;5034312;28;20042;-81
2022/09/08 02:01:07;;;;;;;28.75;25.65;;;18.30;83.00;;;;;;5050058;28;20482;-81
2022/09/08 02:03:34;;;;;;;27.25;24.88;;;18.30;82.80;;;;;;5050527;28;20056;-82
2022/09/08 02:06:01;;;;;;;27.38;24.85;;;18.30;82.90;;;;;;5051375;28;20025;-82
2022/09/08 02:08:27;;;;;;;27.30;24.80;;;18.30;83.00;;;;;;5033637;28;20319;-82
2022/09/08 02:10:55;;;;;;;29.92;27.10;;;18.30;83.00;;;;;;5050533;28;20037;-81
2022/09/08 02:13:22;;;;;;;27.73;25.63;;;18.20;83.00;;;;;;5050625;28;20033;-82
2022/09/08 02:15:48;;;;;;;35.97;25.70;;;18.20;83.10;;;;;;5050004;28;20032;-82
2022/09/08 02:18:15;;;;;;;30.23;24.63;;;18.20;83.20;;;;;;5033540;28;20498;-82
2022/09/08 02:20:41;;;;;;;27.95;25.48;;;18.20;83.30;;;;;;5049584;28;20064;-81
2022/09/08 02:23:07;;;;;;;28.63;25.95;;;18.10;83.20;;;;;;5051347;28;20041;-81
2022/09/08 02:25:33;;;;;;;27.52;25.05;;;18.10;83.40;;;;;;5051430;28;20044;-82
2022/09/08 02:27:59;;;;;;;29.00;26.08;;;18.10;83.40;;;;;;5049625;28;20048;-82
2022/09/08 02:30:25;;;;;;;29.08;26.05;;;18.10;83.10;;;;;;5049502;28;20037;-82
2022/09/08 02:32:51;;;;;;;29.10;26.10;;;18.10;83.30;;;;;;5033464;28;20032;-82
2022/09/08 02:35:17;;;;;;;28.02;25.27;;;18.20;83.10;;;;;;5050693;28;20021;-82
2022/09/08 02:37:44;;;;;;;28.42;25.60;;;18.10;83.30;;;;;;5050024;28;20044;-82
2022/09/08 02:40:10;;;;;;;27.85;25.63;;;18.20;83.10;;;;;;5015505;28;20049;-82
2022/09/08 02:42:36;;;;;;;27.17;25.00;;;18.20;83.10;;;;;;5013435;28;20100;-81
2022/09/08 02:45:03;;;;;;;28.42;25.77;;;18.10;83.00;;;;;;5043850;28;20482;-81
2022/09/08 02:47:32;;;;;;;26.15;24.13;;;18.10;83.10;;;;;;5048531;28;20029;-81
2022/09/08 02:49:58;;;;;;;28.45;25.42;;;18.10;83.00;;;;;;5049442;28;20409;-82
2022/09/08 02:52:24;;;;;;;27.75;25.15;;;18.10;82.80;;;;;;5049913;28;20044;-82
2022/09/08 02:54:51;;;;;;;28.13;25.00;;;18.10;82.90;;;;;;5050915;28;20043;-82
2022/09/08 02:57:20;;;;;;;28.42;25.45;;;18.00;83.20;;;;;;5051340;28;20040;-81
2022/09/08 02:59:46;;;;;;;26.42;23.90;;;18.00;83.40;;;;;;5049830;28;20029;-82
2022/09/08 03:02:12;;;;;;;27.25;24.67;;;18.00;83.30;;;;;;5065303;28;20036;-82
2022/09/08 03:04:38;;;;;;;26.38;23.95;;;18.00;83.40;;;;;;5032885;28;20071;-82
2022/09/08 03:07:04;;;;;;;27.50;24.92;;;18.00;83.30;;;;;;5049406;28;20033;-81
2022/09/08 03:09:30;;;;;;;27.48;24.42;;;18.00;83.40;;;;;;5050691;28;20410;-82
2022/09/08 03:11:56;;;;;;;25.45;23.25;;;18.00;83.10;;;;;;5050560;28;20504;-81
2022/09/08 03:14:23;;;;;;;26.02;23.88;;;17.90;83.10;;;;;;5049611;28;20037;-81
2022/09/08 03:16:49;;;;;;;27.95;25.40;;;17.90;83.30;;;;;;5048402;28;20048;-82
2022/09/08 03:19:15;;;;;;;27.40;25.30;;;17.90;83.30;;;;;;5050641;28;20033;-81
2022/09/08 03:21:41;;;;;;;25.95;23.75;;;17.90;83.30;;;;;;5049187;28;20025;-81
2022/09/08 03:24:07;;;;;;;26.05;23.83;;;17.90;83.30;;;;;;5049230;28;20045;-81
2022/09/08 03:26:33;;;;;;;26.95;24.52;;;17.90;83.30;;;;;;5050686;28;20032;-81
2022/09/08 03:28:59;;;;;;;26.63;24.13;;;17.90;83.10;;;;;;5049113;28;20045;-82
2022/09/08 03:31:25;;;;;;;26.98;24.85;;;18.00;82.90;;;;;;5048310;28;20033;-82
2022/09/08 03:33:53;;;;;;;26.00;23.63;;;17.90;83.30;;;;;;5049222;28;20036;-81
2022/09/08 03:36:20;;;;;;;28.00;24.83;;;17.90;83.30;;;;;;5049063;28;20033;-82
2022/09/08 03:38:46;;;;;;;27.55;24.63;;;17.90;83.10;;;;;;5032712;28;20044;-82
2022/09/08 03:41:13;;;;;;;27.38;24.75;;;17.90;83.30;;;;;;5029009;28;20044;-81
2022/09/08 03:43:43;;;;;;;25.77;23.35;;;17.90;83.10;;;;;;5031884;28;20044;-82
2022/09/08 03:46:09;;;;;;;26.75;24.80;;;18.00;83.00;;;;;;5057589;28;20085;-82
2022/09/08 03:48:35;;;;;;;26.38;24.15;;;18.00;83.00;;;;;;5017257;28;20057;-81
2022/09/08 03:51:12;;;;;;;25.13;23.15;;;17.90;83.30;;;;;;5052927;28;20025;-82
2022/09/08 03:53:38;;;;;;;27.00;24.52;;;18.00;83.20;;;;;;5037165;28;20037;-82
2022/09/08 03:56:08;;;;;;;26.15;23.83;;;17.90;83.20;;;;;;5054639;28;20028;-81
2022/09/08 03:58:35;;;;;;;28.13;25.60;;;17.90;83.30;;;;;;5054407;28;20029;-81
2022/09/08 04:01:01;;;;;;;27.52;25.30;;;17.80;83.80;;;;;;5051567;28;20280;-82
2022/09/08 04:03:28;;;;;;;27.90;25.02;;;17.80;83.70;;;;;;5052993;28;20413;-82
2022/09/08 04:05:54;;;;;;;29.02;26.38;;;17.80;84.10;;;;;;5052944;28;20021;-81
2022/09/08 04:08:21;;;;;;;29.63;27.08;;;17.80;84.10;;;;;;5036094;28;20037;-82
2022/09/08 04:10:47;;;;;;;32.05;29.02;;;17.90;84.20;;;;;;5052720;28;20040;-82
2022/09/08 04:13:13;;;;;;;31.42;28.58;;;17.90;84.60;;;;;;5054081;28;20032;-82
2022/09/08 04:15:39;;;;;;;30.58;28.33;;;17.80;84.80;;;;;;5051895;28;20513;-82
2022/09/08 04:18:05;;;;;;;31.33;28.50;;;17.80;84.80;;;;;;5035893;28;20033;-81
2022/09/08 04:20:32;;;;;;;31.65;28.38;;;17.80;85.00;;;;;;5053857;28;20276;-81
2022/09/08 04:22:58;;;;;;;30.77;28.25;;;17.80;84.80;;;;;;5052156;28;20041;-82
2022/09/08 04:25:24;;;;;;;29.80;27.38;;;17.80;84.90;;;;;;5053815;28;20077;-82
2022/09/08 04:27:50;;;;;;;28.95;26.88;;;17.80;85.10;;;;;;5035399;28;20409;-81
2022/09/08 04:30:17;;;;;;;30.10;27.95;;;17.90;84.90;;;;;;5051672;28;20045;-82
2022/09/08 04:32:43;;;;;;;30.85;28.13;;;17.90;84.70;;;;;;5052238;28;20385;-82
2022/09/08 04:35:09;;;;;;;32.00;29.00;;;17.90;84.70;;;;;;5052280;28;20029;-81
2022/09/08 04:37:35;;;;;;;30.38;27.77;;;18.00;84.80;;;;;;5052160;28;20036;-82
2022/09/08 04:40:03;;;;;;;30.65;27.67;;;17.90;84.90;;;;;;5051993;28;20032;-82
2022/09/08 04:42:29;;;;;;;29.90;27.30;;;17.90;84.80;;;;;;5052162;28;20021;-81
2022/09/08 04:44:55;;;;;;;27.23;24.90;;;17.90;85.50;;;;;;5041980;28;20045;-82
2022/09/08 04:47:21;;;;;;;26.77;23.58;;;17.90;85.10;;;;;;5061690;28;20037;-82
2022/09/08 04:49:48;;;;;;;22.13;20.25;;;18.00;85.10;;;;;;5018826;28;20520;-82
2022/09/08 04:52:14;;;;;;;20.83;18.92;;;17.90;85.60;;;;;;5051948;28;20028;-82
2022/09/08 04:54:41;;;;;;;22.73;17.30;;;17.90;86.00;;;;;;5051509;28;20478;-81
2022/09/08 04:57:07;;;;;;;19.58;17.58;;;17.90;86.00;;;;;;5035586;28;20037;-82
2022/09/08 04:59:33;;;;;;;25.52;15.95;;;17.90;86.10;;;;;;5050213;28;20052;-82
2022/09/08 05:01:59;;;;;;;20.70;17.10;;;18.00;86.00;;;;;;5050573;28;20044;-82
2022/09/08 05:04:26;;;;;;;18.90;16.95;;;18.00;86.10;;;;;;5053096;28;20041;-82
2022/09/08 05:06:52;;;;;;;21.80;17.05;;;17.90;86.40;;;;;;5051717;28;20033;-82
2022/09/08 05:09:24;;;;;;;21.50;16.65;;;17.90;86.90;;;;;;5050576;28;20037;-82
2022/09/08 05:11:50;;;;;;;19.00;16.77;;;17.80;87.00;;;;;;5051308;28;20029;-82
2022/09/08 05:14:16;;;;;;;23.08;16.15;;;17.90;86.90;;;;;;5052636;28;20032;-82
2022/09/08 05:16:42;;;;;;;18.83;17.10;;;17.90;86.80;;;;;;5033968;28;20040;-82
2022/09/08 05:19:10;;;;;;;18.50;15.48;;;17.90;86.90;;;;;;5052786;28;20488;-82
2022/09/08 05:21:36;;;;;;;21.38;16.58;;;18.00;87.00;;;;;;5034600;28;20037;-82
2022/09/08 05:24:03;;;;;;;18.00;16.10;;;17.90;87.20;;;;;;5052436;28;20040;-82
2022/09/08 05:26:29;;;;;;;18.70;16.38;;;18.00;87.10;;;;;;5034534;28;20520;-81
2022/09/08 05:28:55;;;;;;;22.52;16.52;;;18.00;87.30;;;;;;5050755;28;20056;-82
2022/09/08 05:31:24;;;;;;;26.63;17.35;;;18.00;87.30;;;;;;5050591;28;20032;-82
2022/09/08 05:33:50;;;;;;;22.25;16.90;;;18.00;87.20;;;;;;5051313;28;20025;-81
2022/09/08 05:36:18;;;;;;;22.15;17.05;;;18.00;87.20;;;;;;5051332;28;20365;-82
2022/09/08 05:38:44;;;;;;;19.70;17.75;;;18.00;87.40;;;;;;5051072;28;20031;-82
2022/09/08 05:41:11;;;;;;;21.60;15.85;;;18.00;87.60;;;;;;5051013;28;20029;-82
2022/09/08 05:43:37;;;;;;;23.20;16.52;;;17.90;87.50;;;;;;5067274;28;20025;-82
2022/09/08 05:46:04;;;;;;;23.35;16.23;;;18.00;87.60;;;;;;5058905;28;20033;-82
2022/09/08 05:48:30;;;;;;;18.17;16.38;;;18.00;87.70;;;;;;5035360;28;20044;-82
2022/09/08 05:50:56;;;;;;;23.30;17.35;;;17.90;88.20;;;;;;5034524;28;20036;-82
2022/09/08 05:53:22;;;;;;;21.08;16.00;;;18.00;88.00;;;;;;5034322;28;20477;-82
2022/09/08 05:55:59;;;;;;;22.10;15.88;;;17.90;87.90;;;;;;5017635;28;20037;-82
2022/09/08 05:58:26;;;;;;;23.88;16.52;;;18.00;87.50;;;;;;5050829;28;20470;-83
2022/09/08 06:00:54;;;;;;;17.65;15.43;;;18.00;88.00;;;;;;5050421;28;20397;-82
2022/09/08 06:03:20;;;;;;;18.77;15.68;;;18.00;87.60;;;;;;5034262;28;20052;-82
2022/09/08 06:05:46;;;;;;;19.83;16.98;;;18.00;87.40;;;;;;5050943;28;20410;-82
2022/09/08 06:08:13;;;;;;;21.08;16.00;;;18.00;87.70;;;;;;5050492;28;20037;-82
2022/09/08 06:10:39;;;;;;;20.98;16.38;;;18.00;87.60;;;;;;5050875;28;20033;-82
2022/09/08 06:13:05;;;;;;;21.40;16.15;;;18.00;87.90;;;;;;5033813;28;20037;-82
2022/09/08 06:15:31;;;;;;;21.63;16.60;;;18.00;88.10;;;;;;5049808;28;20073;-82
2022/09/08 06:18:01;;;;;;;17.63;15.85;;;17.90;88.50;;;;;;5050556;28;20482;-82
2022/09/08 06:20:28;;;;;;;22.13;16.77;;;18.00;88.50;;;;;;5050615;28;20025;-82
2022/09/08 06:22:54;;;;;;;24.67;18.02;;;18.00;88.60;;;;;;5049158;28;20037;-82
2022/09/08 06:25:20;;;;;;;21.83;17.00;;;18.00;88.70;;;;;;5049827;28;20394;-82
2022/09/08 06:27:54;;;;;;;20.60;16.25;;;18.00;88.90;;;;;;5034520;28;20029;-82
2022/09/08 06:30:21;;;;;;;22.23;19.17;;;18.00;89.50;;;;;;5010806;28;20391;-82
2022/09/08 06:32:48;;;;;;;23.38;20.88;;;18.10;89.10;;;;;;5046333;28;20064;-82
2022/09/08 06:35:26;;;;;;;24.27;18.50;;;18.10;88.80;;;;;;5046792;28;20037;-82
2022/09/08 06:37:59;;;;;;;21.63;19.48;;;18.20;88.80;;;;;;5046472;28;20041;-82
2022/09/08 06:40:33;;;;;;;22.45;19.90;;;18.30;88.80;;;;;;5029512;28;20506;-82
2022/09/08 06:43:01;;;;;;;24.77;22.38;;;18.40;88.60;;;;;;5063102;28;20498;-82
2022/09/08 06:45:30;;;;;;;23.80;21.38;;;18.40;88.20;;;;;;5047038;28;20029;-82
2022/09/08 06:48:11;;;;;;;25.15;22.60;;;18.50;87.70;;;;;;5033091;28;20025;-82
2022/09/08 06:50:41;;;;;;;25.60;23.00;;;18.60;87.30;;;;;;5051213;28;20363;-82
2022/09/08 06:53:12;;;;;;;26.52;23.73;;;18.70;87.00;;;;;;5033038;28;20080;-82
2022/09/08 06:55:45;;;;;;;30.77;27.98;;;18.70;87.40;;;;;;5033023;28;20748;-82
2022/09/08 06:58:24;;;;;;;31.23;27.98;;;18.80;87.60;;;;;;5033991;28;20029;-83
2022/09/08 07:00:58;;;;;;;35.50;32.40;;;19.00;87.30;;;;;;5048964;28;20025;-83
2022/09/08 07:03:45;;;;;;;35.00;31.92;;;19.20;87.20;;;;;;5049631;28;20089;-83
2022/09/08 07:06:11;;;;;;;27.02;24.75;;;19.40;86.40;;;;;;5050985;28;20032;-83
2022/09/08 07:08:52;;;;;;;29.13;26.70;;;19.70;86.10;;;;;;5032425;28;20037;-83
2022/09/08 07:11:36;;;;;;;30.05;27.13;;;19.90;84.60;;;;;;5049381;28;20045;-83
2022/09/08 07:14:26;;;;;;;31.35;28.50;;;20.10;83.40;;;;;;5049474;28;20025;-83
2022/09/08 07:16:54;;;;;;;33.75;30.60;;;20.20;82.80;;;;;;5050196;28;20033;-83
2022/09/08 07:19:22;;;;;;;35.05;31.77;;;20.40;82.30;;;;;;5049303;28;20025;-83
2022/09/08 07:22:19;;;;;;;35.10;32.42;;;20.50;81.00;;;;;;5049338;28;20048;-82
2022/09/08 07:24:45;;;;;;;35.17;31.95;;;20.60;81.00;;;;;;5049984;28;20033;-83
2022/09/08 07:27:12;;;;;;;42.28;38.92;;;20.70;80.70;;;;;;5049287;28;20497;-83
2022/09/08 07:29:45;;;;;;;50.45;46.65;;;20.80;81.60;;;;;;5049512;28;20406;-83
2022/09/08 07:32:15;;;;;;;45.80;42.47;;;21.00;80.50;;;;;;5048962;28;20485;-84
2022/09/08 07:34:52;;;;;;;49.85;46.47;;;21.10;79.00;;;;;;5049208;28;20029;-84
2022/09/08 07:37:27;;;;;;;52.85;49.25;;;21.20;78.40;;;;;;5049376;28;20032;-83
2022/09/08 07:39:57;;;;;;;56.88;52.50;;;21.30;77.30;;;;;;5033082;28;20021;-83
2022/09/08 07:42:24;;;;;;;55.08;51.55;;;21.30;77.30;;;;;;5050516;28;20462;-83
2022/09/08 07:45:00;;;;;;;57.35;53.05;;;21.40;77.30;;;;;;5040413;28;20036;-84
2022/09/08 07:48:13;;;;;;;57.08;53.10;;;21.50;76.40;;;;;;5058566;28;20044;-84
2022/09/08 07:50:55;;;;;;;55.05;51.38;;;21.50;76.10;;;;;;5027842;28;20049;-84
2022/09/08 07:53:51;;;;;;;60.22;56.30;;;21.60;76.40;;;;;;5012990;28;20564;-84
2022/09/08 07:56:25;;;;;;;56.65;53.08;;;21.70;75.20;;;;;;5011662;28;20029;-84
2022/09/08 07:59:02;;;;;;;54.80;50.65;;;21.80;75.60;;;;;;5012040;28;20044;-84
2022/09/08 08:01:47;;;;;;;56.70;52.95;;;21.80;76.00;;;;;;5027304;28;20060;-84
2022/09/08 08:04:21;;;;;;;44.38;41.28;;;22.00;74.90;;;;;;5011851;28;20068;-84
2022/09/08 08:06:51;;;;;;;39.67;37.10;;;22.10;74.00;;;;;;5011101;28;20030;-84
2022/09/08 08:09:45;;;;;;;44.70;41.38;;;22.10;72.80;;;;;;5011252;28;20072;-84
2022/09/08 08:12:25;;;;;;;42.40;39.53;;;22.10;72.80;;;;;;5027875;28;20033;-84
2022/09/08 08:14:59;;;;;;;48.83;45.55;;;22.20;72.30;;;;;;5011031;28;20041;-84
2022/09/08 08:17:57;;;;;;;46.47;43.30;;;22.10;72.20;;;;;;5011449;28;20053;-84
2022/09/08 08:20:42;;;;;;;42.20;38.97;;;22.10;72.70;;;;;;5029898;28;20034;-84
2022/09/08 08:23:36;;;;;;;39.20;36.22;;;22.10;72.80;;;;;;5049842;28;20044;-83
2022/09/08 08:26:34;;;;;;;39.20;36.60;;;22.30;71.90;;;;;;5050556;28;20029;-84
2022/09/08 08:29:29;;;;;;;36.55;33.45;;;22.40;70.70;;;;;;5012594;28;20444;-84
2022/09/08 08:32:21;;;;;;;40.58;37.45;;;22.50;70.40;;;;;;4987658;28;20049;-84
2022/09/08 08:35:00;;;;;;;42.78;39.75;;;22.50;70.50;;;;;;4967675;28;20043;-84
2022/09/08 08:37:28;;;;;;;36.35;33.90;;;22.60;70.70;;;;;;4976832;28;20038;-84
2022/09/08 08:39:55;;;;;;;45.83;42.53;;;22.50;70.00;;;;;;4979076;28;20026;-84
2022/09/08 08:42:29;;;;;;;53.88;49.55;;;22.60;69.50;;;;;;5011368;28;20064;-83
2022/09/08 08:45:26;;;;;;;52.38;48.88;;;22.50;69.80;;;;;;4995379;28;20037;-84
2022/09/08 08:48:20;;;;;;;45.30;42.17;;;22.50;69.80;;;;;;5036127;28;20040;-84
2022/09/08 08:51:16;;;;;;;40.50;37.47;;;22.40;69.90;;;;;;5030567;28;20061;-84
2022/09/08 08:53:42;;;;;;;56.38;52.60;;;22.40;70.80;;;;;;5016877;28;20029;-84
2022/09/08 08:56:30;;;;;;;55.08;51.45;;;22.50;69.80;;;;;;5030761;28;20508;-84
2022/09/08 08:59:20;;;;;;;52.40;48.95;;;22.50;69.70;;;;;;5030723;28;20033;-84
2022/09/08 09:02:17;;;;;;;45.20;41.80;;;22.40;69.90;;;;;;5015972;28;20042;-84
2022/09/08 09:04:52;;;;;;;44.88;41.55;;;22.50;71.10;;;;;;4995938;28;20037;-84
2022/09/08 09:07:51;;;;;;;46.03;43.15;;;22.80;70.40;;;;;;5010975;28;20042;-84
2022/09/08 09:10:36;;;;;;;40.05;37.15;;;23.00;70.10;;;;;;4968758;28;20515;-84
2022/09/08 09:13:21;;;;;;;43.80;40.67;;;23.10;69.70;;;;;;4936771;29;20044;-84
2022/09/08 09:16:13;;;;;;;45.40;41.92;;;23.20;67.60;;;;;;4936055;28;20031;-84
2022/09/08 09:18:39;;;;;;;42.33;39.45;;;23.40;65.80;;;;;;4952286;29;20121;-85
2022/09/08 09:21:31;;;;;;;41.30;38.45;;;23.40;65.20;;;;;;4935719;29;20054;-84
2022/09/08 09:24:21;;;;;;;41.25;38.17;;;23.40;64.80;;;;;;4920463;29;20073;-84
2022/09/08 09:26:50;;;;;;;40.55;37.58;;;23.50;65.00;;;;;;4936767;28;20433;-84
2022/09/08 09:29:20;;;;;;;41.42;38.47;;;23.70;65.10;;;;;;4936072;29;20051;-85
2022/09/08 09:32:09;;;;;;;41.97;38.95;;;23.80;64.10;;;;;;4947645;28;20034;-85
2022/09/08 09:34:45;;;;;;;40.33;37.47;;;23.90;63.60;;;;;;4976394;28;20035;-84
2022/09/08 09:37:29;;;;;;;39.40;36.63;;;23.80;61.80;;;;;;4974682;28;20425;-85
2022/09/08 09:40:02;;;;;;;37.08;34.00;;;23.60;61.70;;;;;;4990349;28;20038;-84
2022/09/08 09:42:36;;;;;;;34.80;32.15;;;23.40;62.40;;;;;;4974622;28;20038;-84
2022/09/08 09:45:21;;;;;;;30.60;27.92;;;23.50;62.80;;;;;;4974326;28;20395;-85
2022/09/08 09:48:05;;;;;;;29.30;26.65;;;23.50;63.30;;;;;;5025593;28;20073;-84
2022/09/08 09:50:58;;;;;;;31.27;28.73;;;23.40;63.00;;;;;;5049602;28;20045;-84
2022/09/08 09:53:30;;;;;;;68.18;63.35;;;23.30;63.80;;;;;;5033147;28;20039;-85
2022/09/08 09:56:34;;;;;;;62.67;58.28;;;23.00;67.10;;;;;;5043410;28;20040;-85
2022/09/08 09:59:15;;;;;;;59.53;55.95;;;22.70;69.30;;;;;;5052062;28;20033;-84
2022/09/08 10:02:00;;;;;;;62.85;58.63;;;22.50;71.10;;;;;;5051543;28;20433;-84
2022/09/08 10:05:02;;;;;;;53.55;50.03;;;22.30;71.10;;;;;;5050697;28;20028;-84
2022/09/08 10:07:53;;;;;;;52.42;48.65;;;22.20;72.00;;;;;;5050780;28;20044;-84
2022/09/08 10:10:54;;;;;;;50.78;47.20;;;22.20;72.60;;;;;;5033731;28;20045;-84
2022/09/08 10:14:09;;;;;;;57.72;53.65;;;22.20;73.90;;;;;;5032264;28;20037;-84
2022/09/08 10:16:58;;;;;;;68.50;64.65;;;22.50;74.50;;;;;;4989246;28;20041;-86
2022/09/08 10:19:51;;;;;;;67.50;63.28;;;22.80;73.00;;;;;;4973690;28;20121;-83
2022/09/08 10:22:39;;;;;;;70.03;65.72;;;23.10;73.20;;;;;;4989747;28;20208;-83
2022/09/08 10:25:27;;;;;;;77.50;72.57;;;23.30;72.10;;;;;;4973362;28;20034;-84
2022/09/08 10:28:20;;;;;;;71.65;67.45;;;23.50;70.80;;;;;;4973575;28;20183;-83
2022/09/08 10:30:53;;;;;;;73.03;68.82;;;23.50;69.80;;;;;;4988903;28;20031;-83
2022/09/08 10:33:33;;;;;;;69.28;65.05;;;23.50;68.60;;;;;;4973252;28;20162;-83
2022/09/08 10:36:08;;;;;;;69.38;65.22;;;23.40;68.10;;;;;;4973291;28;20570;-83
2022/09/08 10:38:53;;;;;;;62.95;58.97;;;23.30;68.30;;;;;;4973896;28;20034;-83
2022/09/08 10:41:43;;;;;;;63.55;59.42;;;23.20;68.90;;;;;;4972468;28;20038;-83
2022/09/08 10:44:27;;;;;;;64.20;59.80;;;23.20;69.50;;;;;;4977539;28;20042;-84
2022/09/08 10:46:59;;;;;;;61.38;57.15;;;23.30;69.30;;;;;;4992152;28;20030;-84
2022/09/08 10:49:36;;;;;;;42.85;39.53;;;23.40;68.70;;;;;;4993404;28;20541;-84
2022/09/08 10:52:08;;;;;;;48.97;45.70;;;23.40;67.80;;;;;;5000502;28;20061;-84
2022/09/08 10:55:05;;;;;;;66.53;62.00;;;23.40;67.40;;;;;;5066286;28;20044;-84
2022/09/08 10:57:55;;;;;;;55.70;51.88;;;23.40;67.80;;;;;;5048995;28;20040;-84
2022/09/08 11:00:22;;;;;;;55.03;51.42;;;23.30;66.80;;;;;;5065974;28;20116;-85
2022/09/08 11:03:13;;;;;;;52.13;48.78;;;23.10;66.80;;;;;;5049311;28;20516;-84
2022/09/08 11:05:57;;;;;;;36.80;34.25;;;23.10;66.70;;;;;;5066230;28;20382;-84
2022/09/08 11:08:54;;;;;;;32.15;29.98;;;23.10;66.30;;;;;;5050977;28;20033;-84
2022/09/08 11:11:37;;;;;;;32.95;30.60;;;23.20;66.30;;;;;;5050663;28;20063;-84
2022/09/08 11:14:41;;;;;;;32.90;30.05;;;23.40;63.50;;;;;;5050989;28;20028;-84
2022/09/08 11:17:22;;;;;;;32.83;30.35;;;23.60;63.00;;;;;;5065056;28;20033;-84
2022/09/08 11:20:08;;;;;;;34.72;32.33;;;23.80;62.40;;;;;;5049675;28;20385;-84
2022/09/08 11:22:51;;;;;;;38.28;35.30;;;24.00;61.60;;;;;;5049599;28;20021;-85
2022/09/08 11:25:30;;;;;;;41.80;38.97;;;23.90;60.60;;;;;;5049511;28;20442;-84
2022/09/08 11:28:14;;;;;;;45.20;41.92;;;23.80;61.00;;;;;;5039399;28;20041;-84
2022/09/08 11:31:10;;;;;;;43.40;40.50;;;23.80;60.10;;;;;;5028800;28;20045;-85
2022/09/08 11:33:44;;;;;;;47.58;43.58;;;23.80;60.10;;;;;;5028249;28;20037;-84
2022/09/08 11:36:34;;;;;;;35.28;32.88;;;23.90;59.60;;;;;;4995471;28;20048;-84
2022/09/08 11:39:05;;;;;;;29.27;27.20;;;24.10;59.00;;;;;;5028342;28;20037;-85
2022/09/08 11:42:09;;;;;;;31.90;29.80;;;24.20;59.00;;;;;;5028027;28;20469;-85
2022/09/08 11:45:13;;;;;;;33.20;30.98;;;24.40;58.00;;;;;;5047637;28;20060;-84
2022/09/08 11:47:52;;;;;;;34.47;31.70;;;24.30;57.80;;;;;;5032935;28;20457;-83
2022/09/08 11:50:24;;;;;;;47.90;44.80;;;24.20;59.70;;;;;;5031327;28;20063;-84
2022/09/08 11:53:11;;;;;;;48.90;45.70;;;24.10;60.70;;;;;;5048101;28;20060;-84
2022/09/08 11:56:00;;;;;;;47.83;44.67;;;24.00;60.90;;;;;;5031203;28;20037;-84
2022/09/08 11:58:54;;;;;;;48.35;45.40;;;24.00;61.20;;;;;;5039770;28;20048;-84
2022/09/08 12:01:49;;;;;;;55.53;51.78;;;23.70;62.60;;;;;;5047117;28;20064;-84
2022/09/08 12:04:34;;;;;;;51.55;47.88;;;23.60;63.20;;;;;;5031251;28;20494;-84
2022/09/08 12:07:16;;;;;;;53.80;50.10;;;23.60;63.30;;;;;;5048029;28;20028;-84
2022/09/08 12:09:42;;;;;;;56.47;52.72;;;23.80;63.30;;;;;;5033888;28;20037;-84
2022/09/08 12:12:33;;;;;;;48.35;45.03;;;23.90;63.30;;;;;;5053895;28;20398;-85
2022/09/08 12:15:12;;;;;;;64.03;60.08;;;24.00;62.10;;;;;;5053803;28;20025;-84
2022/09/08 12:18:19;;;;;;;31.67;28.92;;;24.20;61.40;;;;;;5052283;28;20037;-85
2022/09/08 12:21:06;;;;;;;29.13;26.92;;;24.20;60.60;;;;;;5036392;28;20036;-84
2022/09/08 12:23:54;;;;;;;32.40;29.95;;;24.10;59.60;;;;;;5053893;28;20043;-85
2022/09/08 12:26:48;;;;;;;42.42;39.42;;;24.10;59.70;;;;;;5052706;28;20045;-84
2022/09/08 12:29:17;;;;;;;33.17;31.02;;;24.10;57.90;;;;;;5032315;28;20471;-85
2022/09/08 12:32:18;;;;;;;23.55;21.63;;;24.20;58.20;;;;;;5031576;28;20041;-85
2022/09/08 12:35:04;;;;;;;24.63;22.77;;;24.40;57.30;;;;;;5011538;28;20398;-85
2022/09/08 12:37:42;;;;;;;23.45;21.23;;;24.60;56.10;;;;;;4994362;28;20042;-84
2022/09/08 12:40:25;;;;;;;26.17;23.85;;;24.80;56.10;;;;;;4983062;28;20033;-85
2022/09/08 12:43:06;;;;;;;25.33;23.42;;;24.80;55.60;;;;;;5030656;28;20045;-85
2022/09/08 12:46:09;;;;;;;23.23;21.15;;;25.00;55.60;;;;;;5013498;28;20036;-85
2022/09/08 12:48:40;;;;;;;20.55;18.80;;;25.10;53.10;;;;;;4994893;28;20061;-85
2022/09/08 12:51:35;;;;;;;21.20;19.60;;;25.20;52.90;;;;;;4995222;28;20105;-85
2022/09/08 12:54:38;;;;;;;18.77;16.95;;;25.20;52.70;;;;;;5005881;28;20045;-85
2022/09/08 12:57:47;;;;;;;18.85;17.33;;;25.20;52.60;;;;;;5010652;28;20053;-85
2022/09/08 13:00:16;;;;;;;20.65;18.30;;;25.00;52.80;;;;;;4933222;28;20044;-85
2022/09/08 13:03:06;;;;;;;23.13;21.25;;;24.80;53.50;;;;;;4933552;28;20035;-85
2022/09/08 13:05:48;;;;;;;20.45;18.83;;;24.70;56.00;;;;;;4933623;29;20055;-84
2022/09/08 13:08:46;;;;;;;21.05;19.35;;;24.80;57.30;;;;;;4948290;28;20058;-84
2022/09/08 13:11:15;;;;;;;23.02;21.00;;;24.90;56.10;;;;;;4976226;28;20058;-84
2022/09/08 13:13:43;;;;;;;20.95;19.50;;;25.00;54.30;;;;;;4975610;28;20034;-85